sensor_id;sensor_type;location;lat;lon;timestamp;P1;durP1;ratioP1;P2;durP2;ratioP2
27670;SDS011;15077;49.704;9.908;2023-03-02T00:00:38;34.47;;;20.95;;
27670;SDS011;15077;49.704;9.908;2023-03-02T00:03:06;34.95;;;21.00;;
27670;SDS011;15077;49.704;9.908;2023-03-02T00:05:34;37.70;;;21.30;;
27670;SDS011;15077;49.704;9.908;2023-03-02T00:08:02;29.35;;;17.45;;
27670;SDS011;15077;49.704;9.908;2023-03-02T00:10:29;29.20;;;16.08;;
27670;SDS011;15077;49.704;9.908;2023-03-02T00:12:56;24.92;;;13.55;;
27670;SDS011;15077;49.704;9.908;2023-03-02T00:15:23;19.23;;;10.82;;
27670;SDS011;15077;49.704;9.908;2023-03-02T00:17:48;20.75;;;12.10;;
27670;SDS011;15077;49.704;9.908;2023-03-02T00:20:14;17.08;;;10.70;;
27670;SDS011;15077;49.704;9.908;2023-03-02T00:22:41;18.23;;;10.55;;
27670;SDS011;15077;49.704;9.908;2023-03-02T00:25:09;14.18;;;9.00;;
27670;SDS011;15077;49.704;9.908;2023-03-02T00:27:37;14.55;;;8.45;;
27670;SDS011;15077;49.704;9.908;2023-03-02T00:30:03;16.08;;;8.30;;
27670;SDS011;15077;49.704;9.908;2023-03-02T00:32:31;16.90;;;9.40;;
27670;SDS011;15077;49.704;9.908;2023-03-02T00:34:56;16.42;;;10.13;;
27670;SDS011;15077;49.704;9.908;2023-03-02T00:37:22;17.63;;;9.95;;
27670;SDS011;15077;49.704;9.908;2023-03-02T00:39:50;18.48;;;10.00;;
27670;SDS011;15077;49.704;9.908;2023-03-02T00:42:17;17.08;;;9.50;;
27670;SDS011;15077;49.704;9.908;2023-03-02T00:44:43;15.48;;;9.20;;
27670;SDS011;15077;49.704;9.908;2023-03-02T00:47:09;15.98;;;9.30;;
27670;SDS011;15077;49.704;9.908;2023-03-02T00:49:34;14.43;;;8.70;;
27670;SDS011;15077;49.704;9.908;2023-03-02T00:52:00;15.75;;;8.85;;
27670;SDS011;15077;49.704;9.908;2023-03-02T00:54:28;14.00;;;8.50;;
27670;SDS011;15077;49.704;9.908;2023-03-02T00:56:54;15.90;;;8.30;;
27670;SDS011;15077;49.704;9.908;2023-03-02T00:59:20;13.82;;;8.18;;
27670;SDS011;15077;49.704;9.908;2023-03-02T01:01:53;11.65;;;7.38;;
27670;SDS011;15077;49.704;9.908;2023-03-02T01:04:27;10.35;;;5.95;;
27670;SDS011;15077;49.704;9.908;2023-03-02T01:07:11;11.32;;;7.30;;
27670;SDS011;15077;49.704;9.908;2023-03-02T01:09:43;13.60;;;7.97;;
27670;SDS011;15077;49.704;9.908;2023-03-02T01:12:09;13.57;;;8.52;;
27670;SDS011;15077;49.704;9.908;2023-03-02T01:14:43;13.52;;;8.85;;
27670;SDS011;15077;49.704;9.908;2023-03-02T01:17:13;15.05;;;8.25;;
27670;SDS011;15077;49.704;9.908;2023-03-02T01:19:39;15.88;;;8.77;;
27670;SDS011;15077;49.704;9.908;2023-03-02T01:22:07;14.65;;;8.43;;
27670;SDS011;15077;49.704;9.908;2023-03-02T01:24:33;14.50;;;8.43;;
27670;SDS011;15077;49.704;9.908;2023-03-02T01:26:59;15.98;;;9.77;;
27670;SDS011;15077;49.704;9.908;2023-03-02T01:29:25;11.75;;;7.88;;
27670;SDS011;15077;49.704;9.908;2023-03-02T01:31:51;14.73;;;8.85;;
27670;SDS011;15077;49.704;9.908;2023-03-02T01:34:17;15.40;;;8.80;;
27670;SDS011;15077;49.704;9.908;2023-03-02T01:36:43;15.75;;;9.40;;
27670;SDS011;15077;49.704;9.908;2023-03-02T01:39:10;12.77;;;7.72;;
27670;SDS011;15077;49.704;9.908;2023-03-02T01:41:44;12.88;;;7.50;;
27670;SDS011;15077;49.704;9.908;2023-03-02T01:52:35;10.18;;;6.05;;
27670;SDS011;15077;49.704;9.908;2023-03-02T01:55:03;12.25;;;7.40;;
27670;SDS011;15077;49.704;9.908;2023-03-02T01:57:35;13.18;;;7.47;;
27670;SDS011;15077;49.704;9.908;2023-03-02T02:00:09;13.25;;;8.18;;
27670;SDS011;15077;49.704;9.908;2023-03-02T02:02:46;13.50;;;8.27;;
27670;SDS011;15077;49.704;9.908;2023-03-02T02:05:18;11.85;;;7.72;;
27670;SDS011;15077;49.704;9.908;2023-03-02T02:07:51;12.02;;;7.65;;
27670;SDS011;15077;49.704;9.908;2023-03-02T02:10:19;9.52;;;6.28;;
27670;SDS011;15077;49.704;9.908;2023-03-02T02:12:47;13.45;;;7.60;;
27670;SDS011;15077;49.704;9.908;2023-03-02T02:15:15;12.45;;;7.47;;
27670;SDS011;15077;49.704;9.908;2023-03-02T02:17:41;11.13;;;7.38;;
27670;SDS011;15077;49.704;9.908;2023-03-02T02:20:18;12.23;;;7.13;;
27670;SDS011;15077;49.704;9.908;2023-03-02T02:28:31;17.27;;;9.77;;
27670;SDS011;15077;49.704;9.908;2023-03-02T02:31:32;13.50;;;8.50;;
27670;SDS011;15077;49.704;9.908;2023-03-02T02:34:21;13.30;;;8.40;;
27670;SDS011;15077;49.704;9.908;2023-03-02T02:36:53;15.90;;;9.75;;
27670;SDS011;15077;49.704;9.908;2023-03-02T02:39:33;17.90;;;10.45;;
27670;SDS011;15077;49.704;9.908;2023-03-02T02:42:06;18.75;;;9.60;;
27670;SDS011;15077;49.704;9.908;2023-03-02T02:45:00;12.65;;;7.63;;
27670;SDS011;15077;49.704;9.908;2023-03-02T02:47:31;11.82;;;7.75;;
27670;SDS011;15077;49.704;9.908;2023-03-02T02:49:59;14.35;;;8.10;;
27670;SDS011;15077;49.704;9.908;2023-03-02T02:52:26;12.05;;;6.47;;
27670;SDS011;15077;49.704;9.908;2023-03-02T02:54:53;10.98;;;6.82;;
27670;SDS011;15077;49.704;9.908;2023-03-02T02:57:24;15.63;;;8.88;;
27670;SDS011;15077;49.704;9.908;2023-03-02T02:59:55;15.88;;;8.50;;
27670;SDS011;15077;49.704;9.908;2023-03-02T03:02:26;12.95;;;8.20;;
27670;SDS011;15077;49.704;9.908;2023-03-02T03:04:57;21.05;;;12.80;;
27670;SDS011;15077;49.704;9.908;2023-03-02T03:07:29;19.35;;;10.82;;
27670;SDS011;15077;49.704;9.908;2023-03-02T03:12:58;18.73;;;10.88;;
27670;SDS011;15077;49.704;9.908;2023-03-02T03:15:26;18.35;;;10.63;;
27670;SDS011;15077;49.704;9.908;2023-03-02T03:17:55;18.35;;;10.95;;
27670;SDS011;15077;49.704;9.908;2023-03-02T03:20:24;19.67;;;12.13;;
27670;SDS011;15077;49.704;9.908;2023-03-02T03:22:53;19.33;;;10.70;;
27670;SDS011;15077;49.704;9.908;2023-03-02T03:25:24;23.80;;;13.18;;
27670;SDS011;15077;49.704;9.908;2023-03-02T03:27:51;21.75;;;11.98;;
27670;SDS011;15077;49.704;9.908;2023-03-02T03:30:16;15.23;;;9.40;;
27670;SDS011;15077;49.704;9.908;2023-03-02T03:32:43;19.20;;;10.38;;
27670;SDS011;15077;49.704;9.908;2023-03-02T03:35:13;19.73;;;10.68;;
27670;SDS011;15077;49.704;9.908;2023-03-02T03:37:40;19.17;;;10.85;;
27670;SDS011;15077;49.704;9.908;2023-03-02T03:40:08;16.75;;;9.32;;
27670;SDS011;15077;49.704;9.908;2023-03-02T03:42:36;17.27;;;8.85;;
27670;SDS011;15077;49.704;9.908;2023-03-02T03:45:05;18.33;;;10.77;;
27670;SDS011;15077;49.704;9.908;2023-03-02T03:47:33;17.33;;;9.25;;
27670;SDS011;15077;49.704;9.908;2023-03-02T03:50:02;16.95;;;8.52;;
27670;SDS011;15077;49.704;9.908;2023-03-02T03:52:30;15.57;;;10.13;;
27670;SDS011;15077;49.704;9.908;2023-03-02T03:54:59;16.30;;;9.18;;
27670;SDS011;15077;49.704;9.908;2023-03-02T03:57:26;14.90;;;9.23;;
27670;SDS011;15077;49.704;9.908;2023-03-02T03:59:54;16.17;;;10.35;;
27670;SDS011;15077;49.704;9.908;2023-03-02T04:02:21;16.48;;;10.75;;
27670;SDS011;15077;49.704;9.908;2023-03-02T04:04:49;14.27;;;8.25;;
27670;SDS011;15077;49.704;9.908;2023-03-02T04:07:16;15.73;;;8.40;;
27670;SDS011;15077;49.704;9.908;2023-03-02T04:09:46;14.27;;;9.05;;
27670;SDS011;15077;49.704;9.908;2023-03-02T04:12:12;14.32;;;8.48;;
27670;SDS011;15077;49.704;9.908;2023-03-02T04:14:37;11.98;;;7.30;;
27670;SDS011;15077;49.704;9.908;2023-03-02T04:17:04;13.13;;;7.70;;
27670;SDS011;15077;49.704;9.908;2023-03-02T04:19:32;16.85;;;9.95;;
27670;SDS011;15077;49.704;9.908;2023-03-02T04:21:59;17.38;;;10.02;;
27670;SDS011;15077;49.704;9.908;2023-03-02T04:24:28;12.70;;;7.22;;
27670;SDS011;15077;49.704;9.908;2023-03-02T04:26:56;12.93;;;8.20;;
27670;SDS011;15077;49.704;9.908;2023-03-02T04:29:24;12.07;;;8.20;;
27670;SDS011;15077;49.704;9.908;2023-03-02T04:31:51;14.30;;;8.85;;
27670;SDS011;15077;49.704;9.908;2023-03-02T04:34:17;16.58;;;9.95;;
27670;SDS011;15077;49.704;9.908;2023-03-02T04:36:44;21.70;;;10.95;;
27670;SDS011;15077;49.704;9.908;2023-03-02T04:39:14;17.20;;;11.02;;
27670;SDS011;15077;49.704;9.908;2023-03-02T04:41:43;18.90;;;10.98;;
27670;SDS011;15077;49.704;9.908;2023-03-02T04:44:14;19.23;;;11.18;;
27670;SDS011;15077;49.704;9.908;2023-03-02T04:46:45;17.58;;;9.90;;
27670;SDS011;15077;49.704;9.908;2023-03-02T04:49:13;21.60;;;11.82;;
27670;SDS011;15077;49.704;9.908;2023-03-02T04:51:42;23.10;;;11.32;;
27670;SDS011;15077;49.704;9.908;2023-03-02T04:54:18;13.88;;;8.88;;
27670;SDS011;15077;49.704;9.908;2023-03-02T04:56:48;22.08;;;12.07;;
27670;SDS011;15077;49.704;9.908;2023-03-02T04:59:16;19.48;;;10.27;;
27670;SDS011;15077;49.704;9.908;2023-03-02T05:01:44;15.82;;;9.93;;
27670;SDS011;15077;49.704;9.908;2023-03-02T05:04:11;16.20;;;9.95;;
27670;SDS011;15077;49.704;9.908;2023-03-02T05:06:37;18.55;;;10.30;;
27670;SDS011;15077;49.704;9.908;2023-03-02T05:09:03;16.88;;;9.52;;
27670;SDS011;15077;49.704;9.908;2023-03-02T05:11:30;16.33;;;9.85;;
27670;SDS011;15077;49.704;9.908;2023-03-02T05:13:58;18.90;;;10.88;;
27670;SDS011;15077;49.704;9.908;2023-03-02T05:16:28;21.15;;;11.02;;
27670;SDS011;15077;49.704;9.908;2023-03-02T05:18:57;20.38;;;11.23;;
27670;SDS011;15077;49.704;9.908;2023-03-02T05:21:24;18.33;;;10.65;;
27670;SDS011;15077;49.704;9.908;2023-03-02T05:23:50;15.15;;;8.70;;
27670;SDS011;15077;49.704;9.908;2023-03-02T05:26:16;11.95;;;7.40;;
27670;SDS011;15077;49.704;9.908;2023-03-02T05:28:43;13.25;;;8.30;;
27670;SDS011;15077;49.704;9.908;2023-03-02T05:31:21;18.40;;;9.55;;
27670;SDS011;15077;49.704;9.908;2023-03-02T05:33:53;15.48;;;7.72;;
27670;SDS011;15077;49.704;9.908;2023-03-02T05:36:18;12.52;;;7.85;;
27670;SDS011;15077;49.704;9.908;2023-03-02T05:38:44;13.20;;;7.38;;
27670;SDS011;15077;49.704;9.908;2023-03-02T05:41:10;14.82;;;7.85;;
27670;SDS011;15077;49.704;9.908;2023-03-02T05:43:36;12.45;;;6.78;;
27670;SDS011;15077;49.704;9.908;2023-03-02T05:46:02;10.30;;;6.82;;
27670;SDS011;15077;49.704;9.908;2023-03-02T05:48:28;11.55;;;7.05;;
27670;SDS011;15077;49.704;9.908;2023-03-02T05:50:55;11.32;;;6.70;;
27670;SDS011;15077;49.704;9.908;2023-03-02T05:53:21;11.45;;;7.10;;
27670;SDS011;15077;49.704;9.908;2023-03-02T05:55:48;10.73;;;5.88;;
27670;SDS011;15077;49.704;9.908;2023-03-02T05:58:15;9.82;;;5.63;;
27670;SDS011;15077;49.704;9.908;2023-03-02T06:00:44;10.32;;;6.18;;
27670;SDS011;15077;49.704;9.908;2023-03-02T06:03:12;14.63;;;7.97;;
27670;SDS011;15077;49.704;9.908;2023-03-02T06:05:38;12.57;;;7.78;;
27670;SDS011;15077;49.704;9.908;2023-03-02T06:08:04;13.90;;;7.60;;
27670;SDS011;15077;49.704;9.908;2023-03-02T06:10:30;17.05;;;8.52;;
27670;SDS011;15077;49.704;9.908;2023-03-02T06:12:56;11.95;;;8.20;;
27670;SDS011;15077;49.704;9.908;2023-03-02T06:15:22;13.35;;;7.47;;
27670;SDS011;15077;49.704;9.908;2023-03-02T06:17:48;12.20;;;6.85;;
27670;SDS011;15077;49.704;9.908;2023-03-02T06:20:14;12.98;;;7.07;;
27670;SDS011;15077;49.704;9.908;2023-03-02T06:22:43;14.30;;;7.57;;
27670;SDS011;15077;49.704;9.908;2023-03-02T06:25:11;13.20;;;8.13;;
27670;SDS011;15077;49.704;9.908;2023-03-02T06:27:42;14.25;;;9.43;;
27670;SDS011;15077;49.704;9.908;2023-03-02T06:30:10;12.45;;;7.10;;
27670;SDS011;15077;49.704;9.908;2023-03-02T06:32:39;12.80;;;7.18;;
27670;SDS011;15077;49.704;9.908;2023-03-02T06:35:06;12.80;;;7.35;;
27670;SDS011;15077;49.704;9.908;2023-03-02T06:37:33;11.40;;;6.80;;
27670;SDS011;15077;49.704;9.908;2023-03-02T06:39:59;17.02;;;8.95;;
27670;SDS011;15077;49.704;9.908;2023-03-02T06:42:25;16.45;;;9.95;;
27670;SDS011;15077;49.704;9.908;2023-03-02T06:44:52;16.75;;;9.13;;
27670;SDS011;15077;49.704;9.908;2023-03-02T06:47:19;16.48;;;9.73;;
27670;SDS011;15077;49.704;9.908;2023-03-02T06:49:46;16.15;;;8.90;;
27670;SDS011;15077;49.704;9.908;2023-03-02T06:52:13;19.17;;;9.80;;
27670;SDS011;15077;49.704;9.908;2023-03-02T06:54:39;14.10;;;8.30;;
27670;SDS011;15077;49.704;9.908;2023-03-02T06:57:05;13.45;;;8.57;;
27670;SDS011;15077;49.704;9.908;2023-03-02T06:59:32;15.50;;;10.20;;
27670;SDS011;15077;49.704;9.908;2023-03-02T07:01:58;17.17;;;10.68;;
27670;SDS011;15077;49.704;9.908;2023-03-02T07:04:24;20.75;;;12.50;;
27670;SDS011;15077;49.704;9.908;2023-03-02T07:06:52;26.60;;;14.27;;
27670;SDS011;15077;49.704;9.908;2023-03-02T07:09:18;29.85;;;15.90;;
27670;SDS011;15077;49.704;9.908;2023-03-02T07:11:44;22.65;;;13.02;;
27670;SDS011;15077;49.704;9.908;2023-03-02T07:14:10;24.65;;;12.77;;
27670;SDS011;15077;49.704;9.908;2023-03-02T07:16:36;28.42;;;15.02;;
27670;SDS011;15077;49.704;9.908;2023-03-02T07:21:46;33.00;;;19.05;;
27670;SDS011;15077;49.704;9.908;2023-03-02T07:24:12;32.25;;;17.92;;
27670;SDS011;15077;49.704;9.908;2023-03-02T07:26:37;37.80;;;20.42;;
27670;SDS011;15077;49.704;9.908;2023-03-02T07:29:03;32.10;;;18.17;;
27670;SDS011;15077;49.704;9.908;2023-03-02T07:31:29;32.60;;;18.38;;
27670;SDS011;15077;49.704;9.908;2023-03-02T07:33:54;31.55;;;18.55;;
27670;SDS011;15077;49.704;9.908;2023-03-02T07:36:20;33.47;;;17.95;;
27670;SDS011;15077;49.704;9.908;2023-03-02T07:38:46;38.63;;;20.80;;
27670;SDS011;15077;49.704;9.908;2023-03-02T07:41:12;36.47;;;19.35;;
27670;SDS011;15077;49.704;9.908;2023-03-02T07:43:40;39.72;;;20.55;;
27670;SDS011;15077;49.704;9.908;2023-03-02T07:46:06;37.75;;;20.23;;
27670;SDS011;15077;49.704;9.908;2023-03-02T07:48:32;33.92;;;19.95;;
27670;SDS011;15077;49.704;9.908;2023-03-02T07:51:01;38.42;;;22.08;;
27670;SDS011;15077;49.704;9.908;2023-03-02T07:53:29;25.75;;;14.80;;
27670;SDS011;15077;49.704;9.908;2023-03-02T07:55:55;34.58;;;19.33;;
27670;SDS011;15077;49.704;9.908;2023-03-02T07:58:21;31.80;;;19.15;;
27670;SDS011;15077;49.704;9.908;2023-03-02T08:00:48;35.25;;;18.95;;
27670;SDS011;15077;49.704;9.908;2023-03-02T08:03:14;34.05;;;19.25;;
27670;SDS011;15077;49.704;9.908;2023-03-02T08:05:40;35.45;;;19.05;;
27670;SDS011;15077;49.704;9.908;2023-03-02T08:08:05;34.78;;;20.35;;
27670;SDS011;15077;49.704;9.908;2023-03-02T08:10:34;31.52;;;18.85;;
27670;SDS011;15077;49.704;9.908;2023-03-02T08:13:01;34.83;;;20.08;;
27670;SDS011;15077;49.704;9.908;2023-03-02T08:15:28;28.75;;;17.95;;
27670;SDS011;15077;49.704;9.908;2023-03-02T08:17:54;29.35;;;17.50;;
27670;SDS011;15077;49.704;9.908;2023-03-02T08:20:20;36.13;;;19.88;;
27670;SDS011;15077;49.704;9.908;2023-03-02T08:22:45;27.42;;;17.38;;
27670;SDS011;15077;49.704;9.908;2023-03-02T08:25:11;31.48;;;17.55;;
27670;SDS011;15077;49.704;9.908;2023-03-02T08:27:37;32.08;;;19.10;;
27670;SDS011;15077;49.704;9.908;2023-03-02T08:30:04;34.42;;;19.63;;
27670;SDS011;15077;49.704;9.908;2023-03-02T08:32:32;31.80;;;18.88;;
27670;SDS011;15077;49.704;9.908;2023-03-02T08:34:58;33.92;;;19.77;;
27670;SDS011;15077;49.704;9.908;2023-03-02T08:37:24;35.47;;;19.73;;
27670;SDS011;15077;49.704;9.908;2023-03-02T08:39:50;30.00;;;19.88;;
27670;SDS011;15077;49.704;9.908;2023-03-02T08:42:16;34.90;;;19.73;;
27670;SDS011;15077;49.704;9.908;2023-03-02T08:44:42;27.95;;;17.42;;
27670;SDS011;15077;49.704;9.908;2023-03-02T08:47:08;34.13;;;20.25;;
27670;SDS011;15077;49.704;9.908;2023-03-02T08:49:34;26.98;;;16.35;;
27670;SDS011;15077;49.704;9.908;2023-03-02T08:52:02;33.60;;;17.67;;
27670;SDS011;15077;49.704;9.908;2023-03-02T08:54:29;27.67;;;17.23;;
27670;SDS011;15077;49.704;9.908;2023-03-02T08:56:58;30.83;;;18.30;;
27670;SDS011;15077;49.704;9.908;2023-03-02T08:59:25;29.27;;;17.65;;
27670;SDS011;15077;49.704;9.908;2023-03-02T09:01:51;31.90;;;17.52;;
27670;SDS011;15077;49.704;9.908;2023-03-02T09:04:17;30.23;;;17.63;;
27670;SDS011;15077;49.704;9.908;2023-03-02T09:06:43;28.52;;;17.23;;
27670;SDS011;15077;49.704;9.908;2023-03-02T09:09:10;30.00;;;17.67;;
27670;SDS011;15077;49.704;9.908;2023-03-02T09:11:38;27.95;;;16.90;;
27670;SDS011;15077;49.704;9.908;2023-03-02T09:14:06;30.65;;;17.75;;
27670;SDS011;15077;49.704;9.908;2023-03-02T09:16:32;28.98;;;17.08;;
27670;SDS011;15077;49.704;9.908;2023-03-02T09:18:58;32.20;;;18.73;;
27670;SDS011;15077;49.704;9.908;2023-03-02T09:21:23;27.50;;;16.45;;
27670;SDS011;15077;49.704;9.908;2023-03-02T09:23:49;30.50;;;17.58;;
27670;SDS011;15077;49.704;9.908;2023-03-02T09:26:19;28.35;;;14.65;;
27670;SDS011;15077;49.704;9.908;2023-03-02T09:28:45;27.27;;;16.45;;
27670;SDS011;15077;49.704;9.908;2023-03-02T09:31:11;25.33;;;16.30;;
27670;SDS011;15077;49.704;9.908;2023-03-02T09:33:37;27.45;;;17.40;;
27670;SDS011;15077;49.704;9.908;2023-03-02T09:36:06;26.08;;;16.35;;
27670;SDS011;15077;49.704;9.908;2023-03-02T09:50:59;24.73;;;16.15;;
27670;SDS011;15077;49.704;9.908;2023-03-02T09:55:52;25.63;;;16.17;;
27670;SDS011;15077;49.704;9.908;2023-03-02T09:58:24;28.17;;;16.77;;
27670;SDS011;15077;49.704;9.908;2023-03-02T10:00:59;22.60;;;16.02;;
27670;SDS011;15077;49.704;9.908;2023-03-02T10:03:53;28.45;;;16.75;;
27670;SDS011;15077;49.704;9.908;2023-03-02T10:06:30;25.25;;;16.20;;
27670;SDS011;15077;49.704;9.908;2023-03-02T10:08:56;25.63;;;15.65;;
27670;SDS011;15077;49.704;9.908;2023-03-02T10:11:31;23.25;;;14.93;;
27670;SDS011;15077;49.704;9.908;2023-03-02T10:16:51;24.60;;;14.82;;
27670;SDS011;15077;49.704;9.908;2023-03-02T10:19:40;23.73;;;15.07;;
27670;SDS011;15077;49.704;9.908;2023-03-02T10:22:22;23.48;;;15.02;;
27670;SDS011;15077;49.704;9.908;2023-03-02T10:25:07;29.75;;;15.60;;
27670;SDS011;15077;49.704;9.908;2023-03-02T10:28:08;24.20;;;14.10;;
27670;SDS011;15077;49.704;9.908;2023-03-02T10:30:42;25.25;;;15.18;;
27670;SDS011;15077;49.704;9.908;2023-03-02T10:33:15;27.55;;;15.98;;
27670;SDS011;15077;49.704;9.908;2023-03-02T10:35:47;26.02;;;15.05;;
27670;SDS011;15077;49.704;9.908;2023-03-02T10:38:17;26.83;;;15.77;;
27670;SDS011;15077;49.704;9.908;2023-03-02T10:43:41;20.83;;;11.65;;
27670;SDS011;15077;49.704;9.908;2023-03-02T10:46:12;19.10;;;11.48;;
27670;SDS011;15077;49.704;9.908;2023-03-02T10:48:57;21.55;;;13.43;;
27670;SDS011;15077;49.704;9.908;2023-03-02T10:51:26;21.00;;;13.98;;
27670;SDS011;15077;49.704;9.908;2023-03-02T10:56:37;19.73;;;12.73;;
27670;SDS011;15077;49.704;9.908;2023-03-02T10:59:25;20.17;;;12.50;;
27670;SDS011;15077;49.704;9.908;2023-03-02T11:02:24;22.38;;;12.23;;
27670;SDS011;15077;49.704;9.908;2023-03-02T11:04:53;23.60;;;13.52;;
27670;SDS011;15077;49.704;9.908;2023-03-02T11:07:24;22.90;;;12.48;;
27670;SDS011;15077;49.704;9.908;2023-03-02T11:12:44;21.30;;;13.23;;
27670;SDS011;15077;49.704;9.908;2023-03-02T11:20:30;18.42;;;11.25;;
27670;SDS011;15077;49.704;9.908;2023-03-02T11:26:22;18.65;;;12.55;;
27670;SDS011;15077;49.704;9.908;2023-03-02T11:28:56;17.85;;;12.07;;
27670;SDS011;15077;49.704;9.908;2023-03-02T11:31:39;14.30;;;10.35;;
27670;SDS011;15077;49.704;9.908;2023-03-02T11:34:25;19.23;;;11.95;;
27670;SDS011;15077;49.704;9.908;2023-03-02T11:37:27;19.50;;;10.90;;
27670;SDS011;15077;49.704;9.908;2023-03-02T11:43:30;16.17;;;11.98;;
27670;SDS011;15077;49.704;9.908;2023-03-02T11:45:57;17.33;;;10.82;;
27670;SDS011;15077;49.704;9.908;2023-03-02T11:51:08;18.92;;;12.63;;
27670;SDS011;15077;49.704;9.908;2023-03-02T11:53:42;17.60;;;10.90;;
27670;SDS011;15077;49.704;9.908;2023-03-02T11:56:16;22.92;;;11.93;;
27670;SDS011;15077;49.704;9.908;2023-03-02T11:58:42;19.27;;;11.43;;
27670;SDS011;15077;49.704;9.908;2023-03-02T12:01:17;19.25;;;12.15;;
27670;SDS011;15077;49.704;9.908;2023-03-02T12:09:10;19.40;;;11.75;;
27670;SDS011;15077;49.704;9.908;2023-03-02T12:14:41;16.27;;;11.00;;
27670;SDS011;15077;49.704;9.908;2023-03-02T12:20:06;19.48;;;10.68;;
27670;SDS011;15077;49.704;9.908;2023-03-02T12:22:32;15.73;;;11.23;;
27670;SDS011;15077;49.704;9.908;2023-03-02T12:27:52;13.60;;;8.95;;
27670;SDS011;15077;49.704;9.908;2023-03-02T12:30:21;13.32;;;9.57;;
27670;SDS011;15077;49.704;9.908;2023-03-02T12:35:43;19.92;;;11.18;;
27670;SDS011;15077;49.704;9.908;2023-03-02T12:38:20;17.52;;;10.70;;
27670;SDS011;15077;49.704;9.908;2023-03-02T12:43:54;19.50;;;10.15;;
27670;SDS011;15077;49.704;9.908;2023-03-02T12:46:51;20.98;;;10.52;;
27670;SDS011;15077;49.704;9.908;2023-03-02T12:52:38;15.63;;;10.18;;
27670;SDS011;15077;49.704;9.908;2023-03-02T12:55:21;23.08;;;11.88;;
27670;SDS011;15077;49.704;9.908;2023-03-02T12:57:46;16.30;;;11.55;;
27670;SDS011;15077;49.704;9.908;2023-03-02T13:00:19;15.32;;;9.63;;
27670;SDS011;15077;49.704;9.908;2023-03-02T13:02:50;12.30;;;8.23;;
27670;SDS011;15077;49.704;9.908;2023-03-02T13:05:25;20.45;;;11.77;;
27670;SDS011;15077;49.704;9.908;2023-03-02T13:08:04;19.70;;;10.98;;
27670;SDS011;15077;49.704;9.908;2023-03-02T13:11:01;15.52;;;9.88;;
27670;SDS011;15077;49.704;9.908;2023-03-02T13:15:58;16.70;;;10.85;;
27670;SDS011;15077;49.704;9.908;2023-03-02T13:18:27;20.58;;;12.73;;
27670;SDS011;15077;49.704;9.908;2023-03-02T13:20:57;14.40;;;9.32;;
27670;SDS011;15077;49.704;9.908;2023-03-02T13:23:25;19.55;;;10.40;;
27670;SDS011;15077;49.704;9.908;2023-03-02T13:26:03;19.55;;;11.27;;
27670;SDS011;15077;49.704;9.908;2023-03-02T13:28:34;18.00;;;9.63;;
27670;SDS011;15077;49.704;9.908;2023-03-02T13:33:30;20.20;;;11.38;;
27670;SDS011;15077;49.704;9.908;2023-03-02T13:35:58;16.08;;;9.82;;
27670;SDS011;15077;49.704;9.908;2023-03-02T13:38:26;14.95;;;8.32;;
27670;SDS011;15077;49.704;9.908;2023-03-02T13:41:00;12.10;;;7.78;;
27670;SDS011;15077;49.704;9.908;2023-03-02T13:46:05;17.95;;;10.20;;
27670;SDS011;15077;49.704;9.908;2023-03-02T13:48:35;13.38;;;8.07;;
27670;SDS011;15077;49.704;9.908;2023-03-02T13:53:54;12.98;;;8.10;;
27670;SDS011;15077;49.704;9.908;2023-03-02T13:56:26;18.08;;;10.50;;
27670;SDS011;15077;49.704;9.908;2023-03-02T13:58:59;13.80;;;8.43;;
27670;SDS011;15077;49.704;9.908;2023-03-02T14:01:26;13.73;;;9.07;;
27670;SDS011;15077;49.704;9.908;2023-03-02T14:03:52;15.68;;;10.93;;
27670;SDS011;15077;49.704;9.908;2023-03-02T14:06:18;16.23;;;9.63;;
27670;SDS011;15077;49.704;9.908;2023-03-02T14:08:45;16.08;;;8.65;;
27670;SDS011;15077;49.704;9.908;2023-03-02T14:11:11;16.13;;;9.23;;
27670;SDS011;15077;49.704;9.908;2023-03-02T14:13:43;16.83;;;9.35;;
27670;SDS011;15077;49.704;9.908;2023-03-02T14:16:15;17.15;;;9.43;;
27670;SDS011;15077;49.704;9.908;2023-03-02T14:18:43;14.40;;;10.02;;
27670;SDS011;15077;49.704;9.908;2023-03-02T14:21:20;15.73;;;9.65;;
27670;SDS011;15077;49.704;9.908;2023-03-02T14:23:49;13.73;;;8.30;;
27670;SDS011;15077;49.704;9.908;2023-03-02T14:29:02;14.13;;;7.95;;
27670;SDS011;15077;49.704;9.908;2023-03-02T14:31:55;13.50;;;9.32;;
27670;SDS011;15077;49.704;9.908;2023-03-02T14:36:51;14.15;;;8.85;;
27670;SDS011;15077;49.704;9.908;2023-03-02T14:39:33;17.65;;;9.95;;
27670;SDS011;15077;49.704;9.908;2023-03-02T14:42:16;13.85;;;7.78;;
27670;SDS011;15077;49.704;9.908;2023-03-02T14:44:47;10.43;;;5.88;;
27670;SDS011;15077;49.704;9.908;2023-03-02T14:47:15;13.23;;;7.82;;
27670;SDS011;15077;49.704;9.908;2023-03-02T14:49:43;12.90;;;8.02;;
27670;SDS011;15077;49.704;9.908;2023-03-02T14:52:20;11.90;;;7.10;;
27670;SDS011;15077;49.704;9.908;2023-03-02T14:55:00;10.40;;;6.05;;
27670;SDS011;15077;49.704;9.908;2023-03-02T14:57:32;10.48;;;7.28;;
27670;SDS011;15077;49.704;9.908;2023-03-02T15:00:03;16.38;;;8.20;;
27670;SDS011;15077;49.704;9.908;2023-03-02T15:02:31;10.98;;;7.75;;
27670;SDS011;15077;49.704;9.908;2023-03-02T15:04:57;15.13;;;8.13;;
27670;SDS011;15077;49.704;9.908;2023-03-02T15:07:24;13.38;;;7.75;;
27670;SDS011;15077;49.704;9.908;2023-03-02T15:09:52;11.15;;;6.65;;
27670;SDS011;15077;49.704;9.908;2023-03-02T15:12:20;13.20;;;7.97;;
27670;SDS011;15077;49.704;9.908;2023-03-02T15:14:45;15.95;;;7.97;;
27670;SDS011;15077;49.704;9.908;2023-03-02T15:17:11;16.10;;;7.72;;
27670;SDS011;15077;49.704;9.908;2023-03-02T15:19:37;13.10;;;8.30;;
27670;SDS011;15077;49.704;9.908;2023-03-02T15:22:03;16.77;;;8.13;;
27670;SDS011;15077;49.704;9.908;2023-03-02T15:24:29;13.48;;;6.35;;
27670;SDS011;15077;49.704;9.908;2023-03-02T15:26:55;7.93;;;5.22;;
27670;SDS011;15077;49.704;9.908;2023-03-02T15:29:20;13.98;;;7.20;;
27670;SDS011;15077;49.704;9.908;2023-03-02T15:31:46;18.10;;;8.90;;
27670;SDS011;15077;49.704;9.908;2023-03-02T15:34:12;14.70;;;6.60;;
27670;SDS011;15077;49.704;9.908;2023-03-02T15:36:38;7.97;;;4.82;;
27670;SDS011;15077;49.704;9.908;2023-03-02T15:39:04;13.82;;;6.07;;
27670;SDS011;15077;49.704;9.908;2023-03-02T15:41:33;14.02;;;7.78;;
27670;SDS011;15077;49.704;9.908;2023-03-02T15:44:00;14.95;;;6.75;;
27670;SDS011;15077;49.704;9.908;2023-03-02T15:46:26;13.23;;;6.68;;
27670;SDS011;15077;49.704;9.908;2023-03-02T15:48:52;10.10;;;5.93;;
27670;SDS011;15077;49.704;9.908;2023-03-02T15:51:18;11.18;;;5.63;;
27670;SDS011;15077;49.704;9.908;2023-03-02T15:53:44;15.02;;;7.95;;
27670;SDS011;15077;49.704;9.908;2023-03-02T15:56:11;12.07;;;6.20;;
27670;SDS011;15077;49.704;9.908;2023-03-02T15:58:39;18.17;;;7.93;;
27670;SDS011;15077;49.704;9.908;2023-03-02T16:01:13;13.35;;;7.20;;
27670;SDS011;15077;49.704;9.908;2023-03-02T16:03:41;11.48;;;6.38;;
27670;SDS011;15077;49.704;9.908;2023-03-02T16:06:09;9.00;;;6.40;;
27670;SDS011;15077;49.704;9.908;2023-03-02T16:08:35;12.30;;;5.40;;
27670;SDS011;15077;49.704;9.908;2023-03-02T16:11:03;11.18;;;4.78;;
27670;SDS011;15077;49.704;9.908;2023-03-02T16:13:31;10.90;;;3.90;;
27670;SDS011;15077;49.704;9.908;2023-03-02T16:16:01;6.63;;;4.07;;
27670;SDS011;15077;49.704;9.908;2023-03-02T16:18:30;6.75;;;3.97;;
27670;SDS011;15077;49.704;9.908;2023-03-02T16:20:56;9.45;;;5.15;;